Time;durP1;ratioP1;P1;durP2;ratioP2;P2;SDS_P1;SDS_P2;PMS_P1;PMS_P2;Temp;Humidity;BMP_temperature;BMP_pressure;BME280_temperature;BME280_humidity;BME280_pressure;Samples;Min_cycle;Max_cycle;Signal;HPM_P1;HPM_P2
2020/12/13 00:01:45;;;;;;;9.80;5.13;;;7.10;99.90;;;;;;4992735;28;20209;-79
2020/12/13 00:04:12;;;;;;;20.70;7.47;;;7.10;99.90;;;;;;4992641;28;20283;-80
2020/12/13 00:06:38;;;;;;;14.90;5.80;;;7.10;99.90;;;;;;4992349;28;20208;-78
2020/12/13 00:09:06;;;;;;;11.63;4.47;;;7.10;99.90;;;;;;4992352;28;20240;-80
2020/12/13 00:11:35;;;;;;;11.27;3.00;;;7.20;99.90;;;;;;4992378;28;20216;-79
2020/12/13 00:14:02;;;;;;;13.10;3.73;;;7.30;99.90;;;;;;4992329;28;20241;-80
2020/12/13 00:16:28;;;;;;;9.30;3.33;;;7.30;99.90;;;;;;4992129;28;20205;-78
2020/12/13 00:18:55;;;;;;;11.37;2.63;;;7.30;99.90;;;;;;4992367;28;20208;-81
2020/12/13 00:21:26;;;;;;;5.43;2.67;;;7.30;99.90;;;;;;4992528;28;20213;-78
2020/12/13 00:23:54;;;;;;;6.10;2.80;;;7.30;99.90;;;;;;4992320;28;20282;-75
2020/12/13 00:26:21;;;;;;;5.70;3.30;;;7.30;99.90;;;;;;4992725;28;20297;-87
2020/12/13 00:28:48;;;;;;;7.83;2.47;;;7.40;99.90;;;;;;4992664;28;20213;-86
2020/12/13 00:31:15;;;;;;;9.40;3.10;;;7.50;99.90;;;;;;4990454;28;20206;-82
2020/12/13 00:33:42;;;;;;;9.40;3.00;;;7.60;99.90;;;;;;4990956;28;20205;-83
2020/12/13 00:36:09;;;;;;;7.30;2.80;;;7.70;99.90;;;;;;4992373;28;20240;-88
2020/12/13 00:38:36;;;;;;;8.03;3.23;;;7.70;99.90;;;;;;4992688;28;20268;-77
2020/12/13 00:41:03;;;;;;;7.53;3.10;;;7.80;99.90;;;;;;4992184;28;20213;-81
2020/12/13 00:43:29;;;;;;;7.77;3.10;;;7.80;99.90;;;;;;4992335;28;20672;-85
2020/12/13 00:45:56;;;;;;;5.17;2.70;;;7.80;99.90;;;;;;4991770;28;20577;-79
2020/12/13 00:48:22;;;;;;;5.10;2.63;;;7.80;99.90;;;;;;4992765;28;20259;-76
2020/12/13 00:50:48;;;;;;;10.60;2.83;;;7.80;99.90;;;;;;4992744;28;20255;-81
2020/12/13 00:53:15;;;;;;;5.50;2.13;;;7.90;99.90;;;;;;4978565;28;20550;-83
2020/12/13 00:55:42;;;;;;;4.73;2.83;;;7.90;99.90;;;;;;4992017;28;20236;-81
2020/12/13 00:58:09;;;;;;;7.90;3.30;;;7.90;99.90;;;;;;4991299;28;20232;-82
2020/12/13 01:00:35;;;;;;;6.07;2.30;;;8.00;99.90;;;;;;4992388;28;20213;-83
2020/12/13 01:03:01;;;;;;;8.93;2.77;;;8.00;99.90;;;;;;4991405;28;20239;-82
2020/12/13 01:05:28;;;;;;;10.47;2.53;;;8.00;99.90;;;;;;4991443;28;20213;-78
2020/12/13 01:07:55;;;;;;;7.07;2.27;;;8.00;99.90;;;;;;4991742;28;20209;-84
2020/12/13 01:10:23;;;;;;;9.13;2.60;;;8.10;99.90;;;;;;4992364;28;20723;-74
2020/12/13 01:12:50;;;;;;;5.27;2.67;;;8.10;99.90;;;;;;4992067;28;20743;-85
2020/12/13 01:15:17;;;;;;;7.87;2.50;;;8.10;99.90;;;;;;4991868;28;20233;-82
2020/12/13 01:17:45;;;;;;;10.27;2.60;;;8.10;99.90;;;;;;4992413;28;20205;-87
2020/12/13 01:20:12;;;;;;;7.57;2.17;;;8.10;99.90;;;;;;4991910;28;20308;-81
2020/12/13 01:22:39;;;;;;;8.30;2.17;;;8.10;99.90;;;;;;4991544;28;20217;-81
2020/12/13 01:25:07;;;;;;;8.27;2.10;;;8.10;99.90;;;;;;4990930;28;20259;-81
2020/12/13 01:27:33;;;;;;;9.03;2.60;;;8.10;99.90;;;;;;4992144;28;20260;-87
2020/12/13 01:30:01;;;;;;;8.67;2.23;;;8.10;99.90;;;;;;4991867;28;20263;-81
2020/12/13 01:32:27;;;;;;;7.03;2.53;;;8.10;99.90;;;;;;4991701;28;20220;-74
2020/12/13 01:34:54;;;;;;;10.83;2.73;;;8.00;99.90;;;;;;4991408;28;20232;-81
2020/12/13 01:37:21;;;;;;;4.33;2.03;;;8.00;99.90;;;;;;4991664;28;20259;-83
2020/12/13 01:39:47;;;;;;;5.53;2.37;;;7.90;99.90;;;;;;4992033;28;20235;-84
2020/12/13 01:42:13;;;;;;;8.17;2.23;;;7.90;99.90;;;;;;4991112;28;20204;-82
2020/12/13 01:44:40;;;;;;;7.80;2.17;;;7.90;99.90;;;;;;4991761;28;20235;-82
2020/12/13 01:47:08;;;;;;;8.20;2.40;;;7.90;99.90;;;;;;4991177;28;20213;-83
2020/12/13 01:49:37;;;;;;;7.07;2.00;;;7.90;99.90;;;;;;4989336;28;20675;-82
2020/12/13 01:54:48;;;;;;;5.77;1.80;;;7.90;99.90;;;;;;4986487;28;20246;-79
2020/12/13 01:57:17;;;;;;;7.47;3.23;;;7.90;99.90;;;;;;4990436;28;20628;-77
2020/12/13 01:59:44;;;;;;;3.37;1.37;;;7.90;99.90;;;;;;4991056;28;20605;-78
2020/12/13 02:02:14;;;;;;;4.30;2.33;;;7.70;99.90;;;;;;4990618;28;20255;-83
2020/12/13 02:04:41;;;;;;;5.23;1.87;;;7.50;99.90;;;;;;4991255;28;20209;-84
2020/12/13 02:07:08;;;;;;;5.67;2.07;;;7.50;99.90;;;;;;4990635;28;20216;-79
2020/12/13 02:09:34;;;;;;;9.87;2.30;;;7.40;99.90;;;;;;4991586;28;20624;-86
2020/12/13 02:12:01;;;;;;;10.97;2.70;;;7.50;99.90;;;;;;4990833;28;20213;-83
2020/12/13 02:14:27;;;;;;;5.37;1.97;;;7.60;99.90;;;;;;4991354;28;20229;-78
2020/12/13 02:16:54;;;;;;;9.10;2.43;;;7.50;99.90;;;;;;4992744;28;20236;-85
2020/12/13 02:19:21;;;;;;;5.37;2.37;;;7.40;99.90;;;;;;4995081;28;20209;-86
2020/12/13 02:21:49;;;;;;;5.07;2.10;;;7.30;99.90;;;;;;4995286;28;20259;-85
2020/12/13 02:24:18;;;;;;;9.97;3.17;;;7.20;99.90;;;;;;4994749;28;20221;-86
2020/12/13 02:26:46;;;;;;;8.47;2.50;;;7.20;99.90;;;;;;4994550;28;20221;-84
2020/12/13 02:29:13;;;;;;;10.47;2.73;;;7.00;99.90;;;;;;4994338;28;20263;-82
2020/12/13 02:31:39;;;;;;;10.13;2.70;;;6.90;99.90;;;;;;4994234;28;20244;-75
2020/12/13 02:34:07;;;;;;;4.47;1.80;;;6.80;99.90;;;;;;4991760;28;20232;-84
2020/12/13 02:36:33;;;;;;;4.10;1.93;;;6.70;99.90;;;;;;4994753;28;20213;-76
2020/12/13 02:39:01;;;;;;;5.17;1.70;;;6.70;99.90;;;;;;4994381;28;20287;-78
2020/12/13 02:41:28;;;;;;;8.57;2.57;;;6.70;99.90;;;;;;4994025;28;20205;-83
2020/12/13 02:43:55;;;;;;;5.03;2.07;;;6.80;99.90;;;;;;4994176;28;20691;-74
2020/12/13 02:46:21;;;;;;;6.60;1.80;;;6.80;99.90;;;;;;4994383;28;20237;-74
2020/12/13 02:48:48;;;;;;;4.67;1.90;;;6.80;99.90;;;;;;4994648;28;20212;-80
2020/12/13 02:51:14;;;;;;;8.00;2.17;;;6.90;99.90;;;;;;4993904;28;20209;-82
2020/12/13 02:53:41;;;;;;;5.13;1.80;;;7.00;99.90;;;;;;4994369;28;20595;-84
2020/12/13 02:56:07;;;;;;;4.90;2.13;;;7.10;99.90;;;;;;4993701;28;20715;-82
2020/12/13 02:58:34;;;;;;;4.73;2.57;;;7.10;99.90;;;;;;4993987;28;20228;-81
2020/12/13 03:01:01;;;;;;;6.77;2.10;;;7.10;99.90;;;;;;4993863;28;20279;-83
2020/12/13 03:03:27;;;;;;;8.87;3.77;;;7.10;99.90;;;;;;4993662;28;20213;-81
2020/12/13 03:05:54;;;;;;;7.90;2.33;;;7.10;99.90;;;;;;4994234;28;20267;-81
2020/12/13 03:08:20;;;;;;;6.67;2.00;;;7.00;99.90;;;;;;4993865;28;20267;-81
2020/12/13 03:10:47;;;;;;;6.50;3.43;;;6.90;99.90;;;;;;4994142;28;20209;-82
2020/12/13 03:13:13;;;;;;;6.57;3.07;;;6.90;99.90;;;;;;4993347;28;20208;-80
2020/12/13 03:15:41;;;;;;;3.70;2.53;;;6.80;99.90;;;;;;4993405;28;20268;-82
2020/12/13 03:18:08;;;;;;;4.83;3.30;;;6.60;99.90;;;;;;4993402;28;20295;-82
2020/12/13 03:20:35;;;;;;;6.67;2.57;;;6.60;99.90;;;;;;4993607;28;20216;-81
2020/12/13 03:23:01;;;;;;;8.10;3.77;;;6.60;99.90;;;;;;4992978;28;20220;-81
2020/12/13 03:25:28;;;;;;;8.50;2.90;;;6.60;99.90;;;;;;4993698;28;20209;-82
2020/12/13 03:27:54;;;;;;;8.10;4.27;;;6.60;99.90;;;;;;4993242;28;20742;-79
2020/12/13 03:30:21;;;;;;;7.73;3.00;;;6.70;99.90;;;;;;4993568;28;20297;-82
2020/12/13 03:32:48;;;;;;;8.40;3.40;;;6.80;99.90;;;;;;4993800;28;20259;-83
2020/12/13 03:35:14;;;;;;;8.20;3.47;;;6.80;99.90;;;;;;4993785;28;20263;-86
2020/12/13 03:37:41;;;;;;;7.30;3.20;;;6.90;99.90;;;;;;4993736;28;20213;-84
2020/12/13 03:40:09;;;;;;;10.63;4.47;;;7.00;99.90;;;;;;4993530;28;20270;-82
2020/12/13 03:42:35;;;;;;;7.00;3.13;;;6.90;99.90;;;;;;4993605;28;20299;-86
2020/12/13 03:45:01;;;;;;;7.33;3.17;;;6.90;99.90;;;;;;4993848;28;20216;-84
2020/12/13 03:47:28;;;;;;;2.53;1.80;;;6.80;99.90;;;;;;4993901;28;20208;-85
2020/12/13 03:49:55;;;;;;;9.07;3.77;;;6.90;99.90;;;;;;4993793;28;20630;-84
2020/12/13 03:52:22;;;;;;;4.40;2.67;;;6.90;99.90;;;;;;4993218;28;20634;-78
2020/12/13 03:54:48;;;;;;;5.10;2.63;;;6.90;99.90;;;;;;4993087;28;20719;-82
2020/12/13 03:57:14;;;;;;;9.60;2.50;;;6.90;99.90;;;;;;4992479;28;20232;-82
2020/12/13 03:59:41;;;;;;;9.80;2.10;;;7.00;99.90;;;;;;4993076;28;20212;-82
2020/12/13 04:02:07;;;;;;;7.93;3.00;;;7.10;99.90;;;;;;4992678;28;20205;-82
2020/12/13 04:04:34;;;;;;;4.03;2.33;;;7.10;99.90;;;;;;4993288;28;20212;-83
2020/12/13 04:07:01;;;;;;;7.10;2.90;;;7.20;99.90;;;;;;4992369;28;20209;-83
2020/12/13 04:09:27;;;;;;;7.30;2.87;;;7.20;99.90;;;;;;4993143;28;20204;-83
2020/12/13 04:11:54;;;;;;;7.00;2.70;;;7.20;99.90;;;;;;4992957;28;20209;-83
2020/12/13 04:14:20;;;;;;;6.03;2.50;;;7.20;99.90;;;;;;4993262;28;20591;-82
2020/12/13 04:16:47;;;;;;;5.83;2.67;;;7.00;99.90;;;;;;4993389;28;20205;-84
2020/12/13 04:19:13;;;;;;;6.07;2.47;;;6.90;99.90;;;;;;4992830;28;20209;-82
2020/12/13 04:21:40;;;;;;;11.00;3.00;;;6.90;99.90;;;;;;4992861;28;20209;-87
2020/12/13 04:24:07;;;;;;;8.10;3.20;;;6.90;99.90;;;;;;4992324;28;20272;-84
2020/12/13 04:26:33;;;;;;;8.67;2.43;;;6.80;99.90;;;;;;4993362;28;20209;-77
2020/12/13 04:29:00;;;;;;;6.03;2.63;;;6.90;99.90;;;;;;4991953;28;20260;-81
2020/12/13 04:31:26;;;;;;;8.30;2.80;;;6.90;99.90;;;;;;4992603;28;20336;-81
2020/12/13 04:33:53;;;;;;;6.97;2.77;;;7.00;99.90;;;;;;4984648;28;20213;-81
2020/12/13 04:36:19;;;;;;;9.10;3.70;;;6.90;99.90;;;;;;4992015;28;20298;-80
2020/12/13 04:38:46;;;;;;;8.03;3.23;;;7.00;99.90;;;;;;4992072;28;20259;-80
2020/12/13 04:41:13;;;;;;;9.60;3.10;;;7.10;99.90;;;;;;4990651;28;20259;-82
2020/12/13 04:43:40;;;;;;;8.40;3.13;;;7.20;99.90;;;;;;4992385;28;20267;-82
2020/12/13 04:46:08;;;;;;;4.83;3.30;;;7.20;99.90;;;;;;4991395;28;20580;-81
2020/12/13 04:48:35;;;;;;;9.00;3.20;;;7.20;99.90;;;;;;4992409;28;20240;-84
2020/12/13 04:51:03;;;;;;;8.67;3.37;;;7.10;99.90;;;;;;4991995;28;20212;-85
2020/12/13 04:53:30;;;;;;;6.93;4.40;;;7.00;99.90;;;;;;4992672;28;20209;-84
2020/12/13 04:55:58;;;;;;;9.90;3.47;;;7.00;99.90;;;;;;4991976;28;20237;-79
2020/12/13 04:58:27;;;;;;;9.63;3.17;;;7.00;99.90;;;;;;4991904;28;20597;-85
2020/12/13 05:00:55;;;;;;;7.53;3.00;;;7.10;99.90;;;;;;4991658;28;20216;-79
2020/12/13 05:03:23;;;;;;;13.17;3.70;;;7.20;99.90;;;;;;4991621;28;20212;-76
2020/12/13 05:05:49;;;;;;;9.50;2.47;;;7.30;99.90;;;;;;4991732;28;20582;-79
2020/12/13 05:08:16;;;;;;;5.87;3.10;;;7.30;99.90;;;;;;4991198;28;20746;-78
2020/12/13 05:10:42;;;;;;;7.87;3.23;;;7.40;99.90;;;;;;4978387;28;20291;-77
2020/12/13 05:13:10;;;;;;;6.30;3.20;;;7.50;99.90;;;;;;4991359;28;20629;-80
2020/12/13 05:15:38;;;;;;;6.17;2.37;;;7.30;99.90;;;;;;4991298;28;20229;-77
2020/12/13 05:18:06;;;;;;;5.27;2.40;;;7.20;99.90;;;;;;4991009;28;20212;-80
2020/12/13 05:20:33;;;;;;;7.50;3.13;;;7.30;99.90;;;;;;4991204;28;20256;-80
2020/12/13 05:23:01;;;;;;;9.40;3.23;;;7.40;99.90;;;;;;4991126;28;20216;-80
2020/12/13 05:25:32;;;;;;;4.37;2.13;;;7.30;99.90;;;;;;4991411;28;20209;-80
2020/12/13 05:28:01;;;;;;;9.27;3.73;;;7.40;99.90;;;;;;4991239;28;20205;-80
2020/12/13 05:30:33;;;;;;;6.43;3.17;;;7.40;99.90;;;;;;4991416;28;20211;-82
2020/12/13 05:33:06;;;;;;;8.83;3.93;;;7.50;99.90;;;;;;4991047;28;20259;-81
2020/12/13 05:35:32;;;;;;;5.53;3.00;;;7.60;99.90;;;;;;4991029;28;20263;-80
2020/12/13 05:37:59;;;;;;;7.13;3.03;;;7.60;99.90;;;;;;4991288;28;20213;-80
2020/12/13 05:40:26;;;;;;;7.10;2.87;;;7.50;99.90;;;;;;4991125;28;20259;-80
2020/12/13 05:43:00;;;;;;;8.23;3.67;;;7.50;99.90;;;;;;4991120;28;20200;-78
2020/12/13 05:45:42;;;;;;;12.73;3.43;;;7.50;99.90;;;;;;4991310;28;20208;-81
2020/12/13 05:53:37;;;;;;;7.03;3.50;;;7.60;99.90;;;;;;4992296;28;20215;-77
2020/12/13 05:56:04;;;;;;;4.93;3.00;;;7.60;99.90;;;;;;4994080;28;20232;-78
2020/12/13 05:58:31;;;;;;;5.67;2.57;;;7.60;99.90;;;;;;4994938;28;20201;-77
2020/12/13 06:00:58;;;;;;;8.97;3.33;;;7.60;99.90;;;;;;4994530;28;20205;-79
2020/12/13 06:03:32;;;;;;;3.80;2.00;;;7.50;99.90;;;;;;4994301;28;20217;-80
2020/12/13 06:06:09;;;;;;;7.97;3.20;;;7.60;99.90;;;;;;4994360;28;20204;-82
2020/12/13 06:09:03;;;;;;;9.23;2.90;;;7.60;99.90;;;;;;4994868;28;20216;-82
2020/12/13 06:11:35;;;;;;;13.30;3.57;;;7.60;99.90;;;;;;4994834;28;20207;-82
2020/12/13 06:14:10;;;;;;;7.57;3.50;;;7.70;99.90;;;;;;4994442;28;20259;-77
2020/12/13 06:16:36;;;;;;;3.63;2.57;;;7.60;99.90;;;;;;4995234;28;20216;-83
2020/12/13 06:19:06;;;;;;;7.73;5.00;;;7.60;99.90;;;;;;4994534;28;20205;-84
2020/12/13 06:21:33;;;;;;;6.60;3.93;;;7.50;99.90;;;;;;4995100;28;20279;-83
2020/12/13 06:24:01;;;;;;;6.23;3.73;;;7.50;99.90;;;;;;4994135;28;20212;-78
2020/12/13 06:26:28;;;;;;;12.97;3.53;;;7.60;99.90;;;;;;4995061;28;20629;-81
2020/12/13 06:28:56;;;;;;;5.90;3.13;;;7.60;99.90;;;;;;4994619;28;20255;-82
2020/12/13 06:31:23;;;;;;;5.83;3.23;;;7.60;99.90;;;;;;4994136;28;20259;-81
2020/12/13 06:33:50;;;;;;;7.43;3.27;;;7.60;99.90;;;;;;4992579;28;20230;-80
2020/12/13 06:36:23;;;;;;;9.97;4.23;;;7.60;99.90;;;;;;4993874;28;20239;-81
2020/12/13 06:38:52;;;;;;;13.37;3.73;;;7.40;99.90;;;;;;4995099;28;20263;-83
2020/12/13 06:41:22;;;;;;;8.70;4.47;;;7.40;99.90;;;;;;4995134;28;20211;-83
2020/12/13 06:44:05;;;;;;;9.07;3.57;;;7.30;99.90;;;;;;4993425;28;20303;-77
2020/12/13 06:46:32;;;;;;;7.60;3.93;;;7.30;99.90;;;;;;4994015;28;20209;-83
2020/12/13 06:48:59;;;;;;;10.90;3.80;;;7.30;99.90;;;;;;4993977;28;20209;-82
2020/12/13 06:51:31;;;;;;;7.00;3.57;;;7.30;99.90;;;;;;4993125;28;20209;-81
2020/12/13 06:53:59;;;;;;;15.83;4.07;;;7.30;99.90;;;;;;4992959;28;20232;-81
2020/12/13 06:56:26;;;;;;;8.67;4.93;;;7.40;99.90;;;;;;4993236;28;20237;-82
2020/12/13 06:58:56;;;;;;;8.47;3.50;;;7.40;99.90;;;;;;4994039;28;20588;-81
2020/12/13 07:01:25;;;;;;;7.33;4.33;;;7.40;99.90;;;;;;4993837;28;20271;-80
2020/12/13 07:03:53;;;;;;;9.13;3.67;;;7.40;99.90;;;;;;4992940;28;20572;-77
2020/12/13 07:06:25;;;;;;;6.60;3.57;;;7.50;99.90;;;;;;4993895;28;20205;-84
2020/12/13 07:08:56;;;;;;;7.60;3.70;;;7.50;99.90;;;;;;4993771;28;20213;-79
2020/12/13 07:11:24;;;;;;;7.00;3.13;;;7.50;99.90;;;;;;4993655;28;20209;-82
2020/12/13 07:13:52;;;;;;;9.27;3.27;;;7.60;99.90;;;;;;4993570;28;20212;-83
2020/12/13 07:19:08;;;;;;;5.97;3.33;;;7.50;99.90;;;;;;4990885;28;20220;-76
2020/12/13 07:21:36;;;;;;;7.10;3.13;;;7.50;99.90;;;;;;4990230;28;20208;-79
2020/12/13 07:24:05;;;;;;;13.47;4.13;;;7.40;99.90;;;;;;4988184;28;20268;-78
2020/12/13 07:26:34;;;;;;;5.83;3.30;;;7.20;99.90;;;;;;4987380;28;20263;-76
2020/12/13 07:29:03;;;;;;;10.20;3.27;;;7.10;99.90;;;;;;4990199;28;20248;-78
2020/12/13 07:31:35;;;;;;;10.80;4.20;;;7.10;99.90;;;;;;4991775;28;20205;-78
2020/12/13 07:34:03;;;;;;;6.60;3.23;;;7.10;99.90;;;;;;4992608;28;20236;-77
2020/12/13 07:36:29;;;;;;;10.63;3.40;;;7.30;99.90;;;;;;4993153;28;20228;-77
2020/12/13 07:38:56;;;;;;;8.27;4.03;;;7.30;99.90;;;;;;4991751;28;20205;-77
2020/12/13 07:41:25;;;;;;;4.57;2.93;;;7.20;99.90;;;;;;4986332;28;20676;-78
2020/12/13 07:43:57;;;;;;;7.30;3.30;;;7.20;99.90;;;;;;4992860;28;20205;-78
2020/12/13 07:46:24;;;;;;;4.17;3.20;;;7.20;99.90;;;;;;4992841;28;20201;-78
2020/12/13 07:49:08;;;;;;;10.73;3.03;;;7.30;99.90;;;;;;4992922;28;20627;-78
2020/12/13 07:51:36;;;;;;;10.10;3.63;;;7.40;99.90;;;;;;4986206;28;20212;-78
2020/12/13 07:54:13;;;;;;;5.60;2.97;;;7.40;99.90;;;;;;4992385;28;20263;-78
2020/12/13 07:56:41;;;;;;;6.80;2.90;;;7.50;99.90;;;;;;4991516;28;20290;-78
2020/12/13 07:59:12;;;;;;;8.50;4.00;;;7.40;99.90;;;;;;4991983;28;20208;-77
2020/12/13 08:01:39;;;;;;;8.73;2.83;;;7.40;99.90;;;;;;4992387;28;20231;-77
2020/12/13 08:04:06;;;;;;;8.00;3.57;;;7.40;99.90;;;;;;4992236;28;20217;-77
2020/12/13 08:06:33;;;;;;;9.33;3.03;;;7.30;99.90;;;;;;4992288;28;20264;-78
2020/12/13 08:09:00;;;;;;;10.40;4.20;;;7.30;99.90;;;;;;4992004;28;20620;-77
2020/12/13 08:11:27;;;;;;;8.67;3.33;;;7.60;99.90;;;;;;4992168;28;20642;-78
2020/12/13 08:13:55;;;;;;;6.90;2.80;;;7.70;99.90;;;;;;4991802;28;20252;-78
2020/12/13 08:16:24;;;;;;;7.53;3.10;;;7.70;99.90;;;;;;4988785;28;20256;-77
2020/12/13 08:18:52;;;;;;;7.43;2.97;;;8.00;99.90;;;;;;4992523;28;20201;-79
2020/12/13 08:21:25;;;;;;;4.77;2.87;;;8.30;99.90;;;;;;4992139;28;20205;-77
2020/12/13 08:23:55;;;;;;;5.47;3.60;;;8.50;99.90;;;;;;4991811;28;20308;-81
2020/12/13 08:26:22;;;;;;;5.23;2.37;;;8.70;99.90;;;;;;4992387;28;20213;-76
2020/12/13 08:28:51;;;;;;;11.40;3.50;;;9.00;99.90;;;;;;4992063;28;20247;-76
2020/12/13 08:31:23;;;;;;;5.07;2.67;;;9.70;99.90;;;;;;4992252;28;20204;-75
2020/12/13 08:33:58;;;;;;;6.23;3.30;;;9.80;99.90;;;;;;4992227;28;20204;-82
2020/12/13 08:36:25;;;;;;;8.47;3.33;;;9.70;99.90;;;;;;4991782;28;20236;-78
2020/12/13 08:39:06;;;;;;;4.47;2.77;;;9.60;99.90;;;;;;4992306;28;20330;-78
2020/12/13 08:41:33;;;;;;;9.17;3.63;;;9.60;99.90;;;;;;4992031;28;20201;-78
2020/12/13 08:44:00;;;;;;;7.40;2.80;;;9.60;99.90;;;;;;4991066;28;20296;-78
2020/12/13 08:46:40;;;;;;;5.77;2.80;;;9.70;99.90;;;;;;4991467;28;20204;-79
2020/12/13 08:49:07;;;;;;;8.47;4.47;;;9.50;99.90;;;;;;4982628;28;20302;-78
2020/12/13 08:51:34;;;;;;;10.30;3.10;;;9.50;99.90;;;;;;4991833;28;20655;-79
2020/12/13 08:54:03;;;;;;;6.53;3.13;;;9.60;99.90;;;;;;4990981;28;20271;-79
2020/12/13 08:56:34;;;;;;;5.10;2.77;;;9.40;99.90;;;;;;4990439;28;20306;-79
2020/12/13 08:59:02;;;;;;;9.57;3.30;;;9.70;99.90;;;;;;4991312;28;20208;-79
2020/12/13 09:01:31;;;;;;;7.27;2.37;;;9.60;99.90;;;;;;4991091;28;20749;-78
2020/12/13 09:03:59;;;;;;;8.43;2.70;;;9.40;99.90;;;;;;4991367;28;20221;-79
2020/12/13 09:06:29;;;;;;;12.97;3.50;;;9.50;99.90;;;;;;4989934;28;20295;-79
2020/12/13 09:09:08;;;;;;;6.87;2.60;;;9.60;99.90;;;;;;4990174;28;20211;-79
2020/12/13 09:11:35;;;;;;;7.77;2.83;;;9.70;99.90;;;;;;4990829;28;20684;-80
2020/12/13 09:14:01;;;;;;;4.50;3.27;;;9.50;99.90;;;;;;4989145;28;20672;-80
2020/12/13 09:16:29;;;;;;;10.43;4.33;;;10.00;99.90;;;;;;4990941;28;20236;-80
2020/12/13 09:19:08;;;;;;;6.97;3.27;;;10.30;99.90;;;;;;4990848;28;20260;-80
2020/12/13 09:21:45;;;;;;;10.67;3.53;;;10.00;99.90;;;;;;4991313;28;20259;-80
2020/12/13 09:24:12;;;;;;;7.43;3.20;;;10.00;99.90;;;;;;4990656;28;20247;-80
2020/12/13 09:26:39;;;;;;;6.53;3.03;;;10.20;99.90;;;;;;4990471;28;20216;-79
2020/12/13 09:29:06;;;;;;;5.87;3.20;;;10.10;99.90;;;;;;4990930;28;20201;-80
2020/12/13 09:31:32;;;;;;;5.87;3.57;;;10.50;99.90;;;;;;4991223;28;20262;-80
2020/12/13 09:33:59;;;;;;;5.80;3.07;;;10.40;99.90;;;;;;4990752;28;20225;-79
2020/12/13 09:36:26;;;;;;;10.10;3.90;;;10.40;99.90;;;;;;4990935;28;20229;-80
2020/12/13 09:38:53;;;;;;;5.13;3.60;;;10.40;99.90;;;;;;4990787;28;20287;-79
2020/12/13 09:41:22;;;;;;;11.40;3.83;;;10.40;99.90;;;;;;4981969;28;20209;-80
2020/12/13 09:43:50;;;;;;;5.00;2.77;;;10.80;99.90;;;;;;4991319;28;20205;-79
2020/12/13 09:46:19;;;;;;;7.17;2.90;;;10.40;99.90;;;;;;4990445;28;20299;-80
2020/12/13 09:48:46;;;;;;;5.87;2.60;;;10.20;99.90;;;;;;4986138;28;20209;-79
2020/12/13 09:51:17;;;;;;;8.40;3.80;;;10.20;99.90;;;;;;4990484;28;20304;-79
2020/12/13 09:53:45;;;;;;;6.90;2.73;;;10.20;99.90;;;;;;4990694;28;20209;-80
2020/12/13 09:56:16;;;;;;;7.30;2.90;;;10.40;99.90;;;;;;4990048;28;20233;-80
2020/12/13 09:58:43;;;;;;;8.10;3.77;;;12.70;99.90;;;;;;4990717;28;20209;-79
2020/12/13 10:01:10;;;;;;;5.20;2.97;;;12.70;99.90;;;;;;4990802;28;20270;-80
2020/12/13 10:03:39;;;;;;;6.50;3.37;;;11.40;99.90;;;;;;4990838;28;20208;-80
2020/12/13 10:06:26;;;;;;;8.93;3.80;;;13.00;99.90;;;;;;4990189;28;20328;-80
2020/12/13 10:11:39;;;;;;;6.93;2.83;;;12.60;99.90;;;;;;4990975;28;20209;-80
2020/12/13 10:14:06;;;;;;;9.63;2.67;;;13.30;99.90;;;;;;4990328;28;20213;-79
2020/12/13 10:16:34;;;;;;;6.53;2.45;;;13.50;99.90;;;;;;4990950;28;20240;-79
2020/12/13 10:19:00;;;;;;;5.35;3.08;;;12.00;99.90;;;;;;4990479;28;20201;-79
2020/12/13 10:21:28;;;;;;;5.15;1.95;;;11.30;99.90;;;;;;4991063;28;20575;-79
2020/12/13 10:23:57;;;;;;;9.77;3.03;;;11.10;99.90;;;;;;4990303;28;20677;-79
2020/12/13 10:26:24;;;;;;;4.95;2.40;;;10.80;99.90;;;;;;4990550;28;20691;-79
2020/12/13 10:28:51;;;;;;;4.67;2.57;;;10.70;99.90;;;;;;4990707;28;20286;-79
2020/12/13 10:31:18;;;;;;;6.23;2.47;;;10.70;99.90;;;;;;4990632;28;20209;-80
2020/12/13 10:33:45;;;;;;;7.43;2.40;;;10.60;99.90;;;;;;4990736;28;20581;-80
2020/12/13 10:36:13;;;;;;;9.40;3.17;;;10.40;99.90;;;;;;4990049;28;20716;-80
2020/12/13 10:38:41;;;;;;;7.93;2.27;;;12.10;99.90;;;;;;4992407;28;20635;-79
2020/12/13 10:41:09;;;;;;;4.40;2.37;;;12.70;99.90;;;;;;4993373;28;20263;-80
2020/12/13 10:43:37;;;;;;;4.37;1.97;;;11.60;99.90;;;;;;4993865;28;20220;-79
2020/12/13 10:46:05;;;;;;;9.47;2.90;;;11.30;99.90;;;;;;4993468;28;20255;-79
2020/12/13 10:48:32;;;;;;;8.20;3.30;;;11.20;99.90;;;;;;4993996;28;20263;-80
2020/12/13 10:50:58;;;;;;;3.93;2.00;;;11.20;99.90;;;;;;4993480;28;20291;-80
2020/12/13 10:53:26;;;;;;;10.67;4.73;;;10.70;99.90;;;;;;4991418;28;20209;-79
2020/12/13 10:55:53;;;;;;;4.80;2.30;;;10.90;99.90;;;;;;4987536;28;20240;-80
2020/12/13 10:58:20;;;;;;;3.53;1.93;;;11.20;99.90;;;;;;4993508;28;20213;-79
2020/12/13 11:00:47;;;;;;;11.20;2.93;;;10.80;99.90;;;;;;4994310;28;20213;-80
2020/12/13 11:03:15;;;;;;;5.17;2.37;;;10.50;99.90;;;;;;4993158;28;20255;-80
2020/12/13 11:05:42;;;;;;;4.33;2.20;;;10.60;99.90;;;;;;4993779;28;20259;-80
2020/12/13 11:08:09;;;;;;;6.00;2.20;;;10.70;99.90;;;;;;4992934;28;20211;-79
2020/12/13 11:10:35;;;;;;;5.73;3.00;;;10.60;99.90;;;;;;4993224;28;20271;-80
2020/12/13 11:13:02;;;;;;;6.20;3.00;;;10.80;99.90;;;;;;4993165;28;20217;-80
2020/12/13 11:15:29;;;;;;;7.70;2.50;;;10.90;99.90;;;;;;4993271;28;20292;-80
2020/12/13 11:17:56;;;;;;;7.40;2.63;;;10.90;99.90;;;;;;4992506;28;20212;-79
2020/12/13 11:20:22;;;;;;;9.20;2.50;;;10.90;99.90;;;;;;4986211;28;20269;-79
2020/12/13 11:22:49;;;;;;;7.73;2.80;;;11.10;99.90;;;;;;4985278;28;20213;-79
2020/12/13 11:25:16;;;;;;;5.53;2.73;;;11.00;99.90;;;;;;4990691;28;20959;-79
2020/12/13 11:27:43;;;;;;;7.63;3.27;;;11.10;99.90;;;;;;4990763;28;20209;-79
2020/12/13 11:30:10;;;;;;;3.67;2.73;;;11.10;99.90;;;;;;4993015;28;20208;-80
2020/12/13 11:32:38;;;;;;;6.07;2.10;;;10.90;99.90;;;;;;4992995;28;20209;-79
2020/12/13 11:35:05;;;;;;;3.87;2.10;;;10.80;99.90;;;;;;4992629;28;20223;-79
2020/12/13 11:37:32;;;;;;;7.40;2.30;;;11.00;99.90;;;;;;4992751;28;20263;-79
2020/12/13 11:39:59;;;;;;;6.70;2.33;;;10.90;99.90;;;;;;4992899;28;20211;-80
2020/12/13 11:42:26;;;;;;;4.47;1.70;;;10.80;99.90;;;;;;4992663;28;20204;-80
2020/12/13 11:44:52;;;;;;;6.17;2.27;;;10.80;99.90;;;;;;4992822;28;20216;-78
2020/12/13 11:47:19;;;;;;;5.10;2.27;;;11.00;99.90;;;;;;4992970;28;20209;-79
2020/12/13 11:49:46;;;;;;;9.67;2.40;;;11.10;99.90;;;;;;4992083;28;20267;-79
2020/12/13 11:52:13;;;;;;;5.33;2.20;;;11.10;99.90;;;;;;4992310;28;20204;-80
2020/12/13 11:54:39;;;;;;;5.27;2.13;;;11.10;99.90;;;;;;4992487;28;20208;-78
2020/12/13 11:57:06;;;;;;;5.13;2.03;;;11.30;99.90;;;;;;4992359;28;20290;-77
2020/12/13 11:59:32;;;;;;;5.57;2.27;;;11.20;99.90;;;;;;4992963;28;20209;-80
2020/12/13 12:01:59;;;;;;;5.07;2.20;;;11.00;99.90;;;;;;4992032;28;20208;-78
2020/12/13 12:04:25;;;;;;;4.27;2.33;;;11.10;99.90;;;;;;4989364;28;20260;-78
2020/12/13 12:06:54;;;;;;;6.80;2.73;;;11.00;99.90;;;;;;4991931;28;20279;-78
2020/12/13 12:09:21;;;;;;;6.37;2.00;;;11.10;99.90;;;;;;4992671;28;20561;-78
2020/12/13 12:11:48;;;;;;;5.30;2.30;;;11.00;99.90;;;;;;4992599;28;20279;-78
2020/12/13 12:14:15;;;;;;;5.07;2.20;;;11.10;99.90;;;;;;4992110;28;20212;-78
2020/12/13 12:16:43;;;;;;;3.70;2.67;;;11.10;99.90;;;;;;4992068;28;20275;-79
2020/12/13 12:19:10;;;;;;;5.93;2.20;;;11.10;99.90;;;;;;4991527;28;20212;-81
2020/12/13 12:21:37;;;;;;;14.93;2.87;;;11.30;99.90;;;;;;4987229;28;20267;-80
2020/12/13 12:24:05;;;;;;;5.03;2.13;;;11.20;99.90;;;;;;4991417;28;20209;-77
2020/12/13 12:26:32;;;;;;;7.90;3.00;;;11.10;99.90;;;;;;4991963;28;20205;-76
2020/12/13 12:28:59;;;;;;;5.30;2.50;;;11.30;99.90;;;;;;4991226;28;20630;-77
2020/12/13 12:31:26;;;;;;;5.40;2.00;;;11.50;99.90;;;;;;4992031;28;20220;-77
2020/12/13 12:33:53;;;;;;;8.43;2.33;;;11.50;99.90;;;;;;4991130;28;20672;-76
2020/12/13 12:36:22;;;;;;;9.20;3.20;;;11.50;99.90;;;;;;4991603;28;20229;-77
2020/12/13 12:38:49;;;;;;;6.23;1.87;;;11.30;99.90;;;;;;4991769;28;20263;-77
2020/12/13 12:41:19;;;;;;;11.60;2.83;;;11.30;99.90;;;;;;4991490;28;20216;-79
2020/12/13 12:43:47;;;;;;;4.83;2.60;;;11.50;99.90;;;;;;4992174;28;20263;-78
2020/12/13 12:46:14;;;;;;;2.97;1.50;;;11.50;99.90;;;;;;4991265;28;20267;-78
2020/12/13 12:48:41;;;;;;;8.40;2.77;;;11.50;99.90;;;;;;4991530;28;20263;-79
2020/12/13 12:51:11;;;;;;;4.53;2.00;;;11.40;99.90;;;;;;4982414;28;20268;-78
2020/12/13 12:53:37;;;;;;;12.50;3.53;;;11.60;99.90;;;;;;4982342;28;20703;-79
2020/12/13 12:56:06;;;;;;;7.17;2.00;;;11.60;99.90;;;;;;4990504;28;20228;-80
2020/12/13 12:58:41;;;;;;;4.03;1.77;;;11.50;99.90;;;;;;4991219;28;20209;-80
2020/12/13 13:01:11;;;;;;;10.30;2.57;;;11.70;99.90;;;;;;4986206;28;20197;-79
2020/12/13 13:03:37;;;;;;;9.30;2.83;;;11.60;99.90;;;;;;4979117;28;20584;-79
2020/12/13 13:06:08;;;;;;;5.63;2.03;;;11.60;99.90;;;;;;4990487;28;20555;-79
2020/12/13 13:08:39;;;;;;;11.13;3.53;;;11.80;99.90;;;;;;4989472;28;20235;-78
2020/12/13 13:11:10;;;;;;;6.27;2.30;;;11.90;99.90;;;;;;4989168;28;20848;-80